sensor_id;sensor_type;location;lat;lon;timestamp;P1;durP1;ratioP1;P2;durP2;ratioP2
44430;SDS011;30135;47.866;-4.222;2023-07-31T00:00:59;10.02;;;2.50;;
44430;SDS011;30135;47.866;-4.222;2023-07-31T00:03:24;13.18;;;3.15;;
44430;SDS011;30135;47.866;-4.222;2023-07-31T00:05:51;22.67;;;4.13;;
44430;SDS011;30135;47.866;-4.222;2023-07-31T00:08:17;23.17;;;4.35;;
44430;SDS011;30135;47.866;-4.222;2023-07-31T00:10:43;32.97;;;3.92;;
44430;SDS011;30135;47.866;-4.222;2023-07-31T00:13:09;27.35;;;3.42;;
44430;SDS011;30135;47.866;-4.222;2023-07-31T00:15:35;20.85;;;3.30;;
44430;SDS011;30135;47.866;-4.222;2023-07-31T00:18:01;15.73;;;2.72;;
44430;SDS011;30135;47.866;-4.222;2023-07-31T00:20:33;21.73;;;3.58;;
44430;SDS011;30135;47.866;-4.222;2023-07-31T00:22:59;20.58;;;3.10;;
44430;SDS011;30135;47.866;-4.222;2023-07-31T00:25:25;17.48;;;2.95;;
44430;SDS011;30135;47.866;-4.222;2023-07-31T00:27:51;17.65;;;3.47;;
44430;SDS011;30135;47.866;-4.222;2023-07-31T00:30:17;15.65;;;2.83;;
44430;SDS011;30135;47.866;-4.222;2023-07-31T00:32:43;16.33;;;3.40;;
44430;SDS011;30135;47.866;-4.222;2023-07-31T00:35:09;19.63;;;3.88;;
44430;SDS011;30135;47.866;-4.222;2023-07-31T00:37:35;18.95;;;4.07;;
44430;SDS011;30135;47.866;-4.222;2023-07-31T00:40:01;13.93;;;2.63;;
44430;SDS011;30135;47.866;-4.222;2023-07-31T00:42:28;18.50;;;2.92;;
44430;SDS011;30135;47.866;-4.222;2023-07-31T00:44:57;19.98;;;3.28;;
44430;SDS011;30135;47.866;-4.222;2023-07-31T00:47:23;21.63;;;3.65;;
44430;SDS011;30135;47.866;-4.222;2023-07-31T00:49:49;14.77;;;2.80;;
44430;SDS011;30135;47.866;-4.222;2023-07-31T00:52:15;20.55;;;3.22;;
44430;SDS011;30135;47.866;-4.222;2023-07-31T00:54:42;26.02;;;4.05;;
44430;SDS011;30135;47.866;-4.222;2023-07-31T00:57:08;21.45;;;2.97;;
44430;SDS011;30135;47.866;-4.222;2023-07-31T00:59:34;16.15;;;3.45;;
44430;SDS011;30135;47.866;-4.222;2023-07-31T01:02:00;19.02;;;3.72;;
44430;SDS011;30135;47.866;-4.222;2023-07-31T01:04:26;18.67;;;3.20;;
44430;SDS011;30135;47.866;-4.222;2023-07-31T01:07:00;14.07;;;3.10;;
44430;SDS011;30135;47.866;-4.222;2023-07-31T01:09:43;17.92;;;2.88;;
44430;SDS011;30135;47.866;-4.222;2023-07-31T01:12:30;21.60;;;3.08;;
44430;SDS011;30135;47.866;-4.222;2023-07-31T01:15:07;21.83;;;3.67;;
44430;SDS011;30135;47.866;-4.222;2023-07-31T01:17:39;17.35;;;2.75;;
44430;SDS011;30135;47.866;-4.222;2023-07-31T01:20:27;24.55;;;4.05;;
44430;SDS011;30135;47.866;-4.222;2023-07-31T01:29:03;23.67;;;3.60;;
44430;SDS011;30135;47.866;-4.222;2023-07-31T01:31:46;24.42;;;4.63;;
44430;SDS011;30135;47.866;-4.222;2023-07-31T01:34:15;17.58;;;4.30;;
44430;SDS011;30135;47.866;-4.222;2023-07-31T01:36:43;23.65;;;3.30;;
44430;SDS011;30135;47.866;-4.222;2023-07-31T01:39:09;11.23;;;2.40;;
44430;SDS011;30135;47.866;-4.222;2023-07-31T01:41:35;24.77;;;3.38;;
44430;SDS011;30135;47.866;-4.222;2023-07-31T01:44:01;22.08;;;5.03;;
44430;SDS011;30135;47.866;-4.222;2023-07-31T01:46:27;19.27;;;3.33;;
44430;SDS011;30135;47.866;-4.222;2023-07-31T01:48:53;18.08;;;3.08;;
44430;SDS011;30135;47.866;-4.222;2023-07-31T01:51:19;17.92;;;3.35;;
44430;SDS011;30135;47.866;-4.222;2023-07-31T01:53:45;15.48;;;3.72;;
44430;SDS011;30135;47.866;-4.222;2023-07-31T01:56:11;17.75;;;3.50;;
44430;SDS011;30135;47.866;-4.222;2023-07-31T01:58:40;13.18;;;4.05;;
44430;SDS011;30135;47.866;-4.222;2023-07-31T02:01:06;28.55;;;4.53;;
44430;SDS011;30135;47.866;-4.222;2023-07-31T02:03:32;12.43;;;3.72;;
44430;SDS011;30135;47.866;-4.222;2023-07-31T02:05:58;13.10;;;3.20;;
44430;SDS011;30135;47.866;-4.222;2023-07-31T02:08:24;19.23;;;3.72;;
44430;SDS011;30135;47.866;-4.222;2023-07-31T02:10:50;22.92;;;5.35;;
44430;SDS011;30135;47.866;-4.222;2023-07-31T02:13:16;11.60;;;2.67;;
44430;SDS011;30135;47.866;-4.222;2023-07-31T02:15:42;19.10;;;3.67;;
44430;SDS011;30135;47.866;-4.222;2023-07-31T02:18:08;18.25;;;3.22;;
44430;SDS011;30135;47.866;-4.222;2023-07-31T02:20:34;16.30;;;3.65;;
44430;SDS011;30135;47.866;-4.222;2023-07-31T02:23:02;21.65;;;4.00;;
44430;SDS011;30135;47.866;-4.222;2023-07-31T02:25:28;12.63;;;3.03;;
44430;SDS011;30135;47.866;-4.222;2023-07-31T02:27:54;12.77;;;2.90;;
44430;SDS011;30135;47.866;-4.222;2023-07-31T02:30:20;18.42;;;2.88;;
44430;SDS011;30135;47.866;-4.222;2023-07-31T02:32:47;18.15;;;2.90;;
44430;SDS011;30135;47.866;-4.222;2023-07-31T02:35:13;20.58;;;3.88;;
44430;SDS011;30135;47.866;-4.222;2023-07-31T02:37:41;14.23;;;2.45;;
44430;SDS011;30135;47.866;-4.222;2023-07-31T02:40:08;17.23;;;3.72;;
44430;SDS011;30135;47.866;-4.222;2023-07-31T02:42:34;17.73;;;2.88;;
44430;SDS011;30135;47.866;-4.222;2023-07-31T02:45:00;21.67;;;3.63;;
44430;SDS011;30135;47.866;-4.222;2023-07-31T02:47:26;16.70;;;3.15;;
44430;SDS011;30135;47.866;-4.222;2023-07-31T02:49:52;28.48;;;3.17;;
44430;SDS011;30135;47.866;-4.222;2023-07-31T02:52:18;21.65;;;4.07;;
44430;SDS011;30135;47.866;-4.222;2023-07-31T02:54:44;12.60;;;3.85;;
44430;SDS011;30135;47.866;-4.222;2023-07-31T02:57:10;17.00;;;3.55;;
44430;SDS011;30135;47.866;-4.222;2023-07-31T02:59:36;16.83;;;2.17;;
44430;SDS011;30135;47.866;-4.222;2023-07-31T03:02:02;15.32;;;2.35;;
44430;SDS011;30135;47.866;-4.222;2023-07-31T03:04:29;15.98;;;2.55;;
44430;SDS011;30135;47.866;-4.222;2023-07-31T03:06:55;30.88;;;4.03;;
44430;SDS011;30135;47.866;-4.222;2023-07-31T03:09:21;16.15;;;3.13;;
44430;SDS011;30135;47.866;-4.222;2023-07-31T03:11:47;16.35;;;3.17;;
44430;SDS011;30135;47.866;-4.222;2023-07-31T03:14:12;19.35;;;2.50;;
44430;SDS011;30135;47.866;-4.222;2023-07-31T03:16:38;14.15;;;3.22;;
44430;SDS011;30135;47.866;-4.222;2023-07-31T03:19:04;18.80;;;2.90;;
44430;SDS011;30135;47.866;-4.222;2023-07-31T03:21:30;14.20;;;3.92;;
44430;SDS011;30135;47.866;-4.222;2023-07-31T03:23:56;14.57;;;2.78;;
44430;SDS011;30135;47.866;-4.222;2023-07-31T03:26:22;15.25;;;2.78;;
44430;SDS011;30135;47.866;-4.222;2023-07-31T03:28:48;20.33;;;3.30;;
44430;SDS011;30135;47.866;-4.222;2023-07-31T03:31:14;11.88;;;2.08;;
44430;SDS011;30135;47.866;-4.222;2023-07-31T03:33:40;10.75;;;2.22;;
44430;SDS011;30135;47.866;-4.222;2023-07-31T03:36:06;17.13;;;3.70;;
44430;SDS011;30135;47.866;-4.222;2023-07-31T03:38:35;16.70;;;3.25;;
44430;SDS011;30135;47.866;-4.222;2023-07-31T03:41:01;17.77;;;2.20;;
44430;SDS011;30135;47.866;-4.222;2023-07-31T03:43:27;27.08;;;3.05;;
44430;SDS011;30135;47.866;-4.222;2023-07-31T03:45:53;16.13;;;4.07;;
44430;SDS011;30135;47.866;-4.222;2023-07-31T03:48:19;11.45;;;2.38;;
44430;SDS011;30135;47.866;-4.222;2023-07-31T03:50:45;17.00;;;3.50;;
44430;SDS011;30135;47.866;-4.222;2023-07-31T03:53:11;14.70;;;2.35;;
44430;SDS011;30135;47.866;-4.222;2023-07-31T03:55:40;19.77;;;3.15;;
44430;SDS011;30135;47.866;-4.222;2023-07-31T03:58:06;22.13;;;2.63;;
44430;SDS011;30135;47.866;-4.222;2023-07-31T04:00:32;12.75;;;2.22;;
44430;SDS011;30135;47.866;-4.222;2023-07-31T04:02:58;11.38;;;2.63;;
44430;SDS011;30135;47.866;-4.222;2023-07-31T04:05:26;16.23;;;2.45;;
44430;SDS011;30135;47.866;-4.222;2023-07-31T04:07:54;13.52;;;2.42;;
44430;SDS011;30135;47.866;-4.222;2023-07-31T04:10:20;15.73;;;2.55;;
44430;SDS011;30135;47.866;-4.222;2023-07-31T04:12:49;26.20;;;4.05;;
44430;SDS011;30135;47.866;-4.222;2023-07-31T04:15:15;20.92;;;2.67;;
44430;SDS011;30135;47.866;-4.222;2023-07-31T04:17:41;8.60;;;3.78;;
44430;SDS011;30135;47.866;-4.222;2023-07-31T04:20:07;15.82;;;3.05;;
44430;SDS011;30135;47.866;-4.222;2023-07-31T04:22:34;16.65;;;2.58;;
44430;SDS011;30135;47.866;-4.222;2023-07-31T04:25:00;23.63;;;4.22;;
44430;SDS011;30135;47.866;-4.222;2023-07-31T04:27:26;26.05;;;2.58;;
44430;SDS011;30135;47.866;-4.222;2023-07-31T04:29:52;17.08;;;2.47;;
44430;SDS011;30135;47.866;-4.222;2023-07-31T04:32:20;12.63;;;3.28;;
44430;SDS011;30135;47.866;-4.222;2023-07-31T04:34:46;23.00;;;2.95;;
44430;SDS011;30135;47.866;-4.222;2023-07-31T04:37:12;21.70;;;3.45;;
44430;SDS011;30135;47.866;-4.222;2023-07-31T04:39:39;13.10;;;2.63;;
44430;SDS011;30135;47.866;-4.222;2023-07-31T04:42:05;22.05;;;4.13;;
44430;SDS011;30135;47.866;-4.222;2023-07-31T04:44:31;12.25;;;2.60;;
44430;SDS011;30135;47.866;-4.222;2023-07-31T04:46:57;11.10;;;2.90;;
44430;SDS011;30135;47.866;-4.222;2023-07-31T04:49:23;20.63;;;4.72;;
44430;SDS011;30135;47.866;-4.222;2023-07-31T04:51:49;10.30;;;2.20;;
44430;SDS011;30135;47.866;-4.222;2023-07-31T04:54:15;13.32;;;2.42;;
44430;SDS011;30135;47.866;-4.222;2023-07-31T04:56:41;19.08;;;3.17;;
44430;SDS011;30135;47.866;-4.222;2023-07-31T04:59:07;26.75;;;3.63;;
44430;SDS011;30135;47.866;-4.222;2023-07-31T05:01:33;20.02;;;2.67;;
44430;SDS011;30135;47.866;-4.222;2023-07-31T05:03:59;17.77;;;3.45;;
44430;SDS011;30135;47.866;-4.222;2023-07-31T05:06:25;15.68;;;3.63;;
44430;SDS011;30135;47.866;-4.222;2023-07-31T05:08:51;22.02;;;4.22;;
44430;SDS011;30135;47.866;-4.222;2023-07-31T05:11:17;20.00;;;3.47;;
44430;SDS011;30135;47.866;-4.222;2023-07-31T05:13:42;14.02;;;3.05;;
44430;SDS011;30135;47.866;-4.222;2023-07-31T05:16:08;14.18;;;3.05;;
44430;SDS011;30135;47.866;-4.222;2023-07-31T05:18:34;26.67;;;3.95;;
44430;SDS011;30135;47.866;-4.222;2023-07-31T05:21:00;20.45;;;3.30;;
44430;SDS011;30135;47.866;-4.222;2023-07-31T05:23:26;31.38;;;3.33;;
44430;SDS011;30135;47.866;-4.222;2023-07-31T05:25:52;22.00;;;3.30;;
44430;SDS011;30135;47.866;-4.222;2023-07-31T05:28:18;28.65;;;4.72;;
44430;SDS011;30135;47.866;-4.222;2023-07-31T05:30:47;20.83;;;2.83;;
44430;SDS011;30135;47.866;-4.222;2023-07-31T05:33:13;15.77;;;3.53;;
44430;SDS011;30135;47.866;-4.222;2023-07-31T05:35:39;37.83;;;3.47;;
44430;SDS011;30135;47.866;-4.222;2023-07-31T05:38:05;19.90;;;3.50;;
44430;SDS011;30135;47.866;-4.222;2023-07-31T05:40:32;15.65;;;3.00;;
44430;SDS011;30135;47.866;-4.222;2023-07-31T05:42:58;24.75;;;3.80;;
44430;SDS011;30135;47.866;-4.222;2023-07-31T05:45:25;11.57;;;2.95;;
44430;SDS011;30135;47.866;-4.222;2023-07-31T05:47:51;20.92;;;3.42;;
44430;SDS011;30135;47.866;-4.222;2023-07-31T05:50:19;13.55;;;3.00;;
44430;SDS011;30135;47.866;-4.222;2023-07-31T05:52:45;26.42;;;3.45;;
44430;SDS011;30135;47.866;-4.222;2023-07-31T05:55:13;24.55;;;3.35;;
44430;SDS011;30135;47.866;-4.222;2023-07-31T05:57:39;33.55;;;4.28;;
44430;SDS011;30135;47.866;-4.222;2023-07-31T06:00:13;25.15;;;3.83;;
44430;SDS011;30135;47.866;-4.222;2023-07-31T06:02:55;24.17;;;4.05;;
44430;SDS011;30135;47.866;-4.222;2023-07-31T06:05:21;32.97;;;4.90;;
44430;SDS011;30135;47.866;-4.222;2023-07-31T06:07:47;21.25;;;4.57;;
44430;SDS011;30135;47.866;-4.222;2023-07-31T06:10:13;22.00;;;5.00;;
44430;SDS011;30135;47.866;-4.222;2023-07-31T06:12:39;21.33;;;4.22;;
44430;SDS011;30135;47.866;-4.222;2023-07-31T06:15:05;16.00;;;3.17;;
44430;SDS011;30135;47.866;-4.222;2023-07-31T06:17:32;15.25;;;3.70;;
44430;SDS011;30135;47.866;-4.222;2023-07-31T06:19:58;28.35;;;4.55;;
44430;SDS011;30135;47.866;-4.222;2023-07-31T06:22:24;27.08;;;4.07;;
44430;SDS011;30135;47.866;-4.222;2023-07-31T06:24:50;20.45;;;3.72;;
44430;SDS011;30135;47.866;-4.222;2023-07-31T06:27:16;29.83;;;4.20;;
44430;SDS011;30135;47.866;-4.222;2023-07-31T06:29:42;24.10;;;3.70;;
44430;SDS011;30135;47.866;-4.222;2023-07-31T06:32:08;21.67;;;3.53;;
44430;SDS011;30135;47.866;-4.222;2023-07-31T06:34:34;28.15;;;4.40;;
44430;SDS011;30135;47.866;-4.222;2023-07-31T06:37:00;26.40;;;3.65;;
44430;SDS011;30135;47.866;-4.222;2023-07-31T06:39:26;28.17;;;3.97;;
44430;SDS011;30135;47.866;-4.222;2023-07-31T06:41:52;22.00;;;3.08;;
44430;SDS011;30135;47.866;-4.222;2023-07-31T06:44:18;23.42;;;4.30;;
44430;SDS011;30135;47.866;-4.222;2023-07-31T06:46:44;16.83;;;3.22;;
44430;SDS011;30135;47.866;-4.222;2023-07-31T06:49:10;29.33;;;3.53;;
44430;SDS011;30135;47.866;-4.222;2023-07-31T06:51:36;17.20;;;4.22;;
44430;SDS011;30135;47.866;-4.222;2023-07-31T06:54:03;22.73;;;4.15;;
44430;SDS011;30135;47.866;-4.222;2023-07-31T06:56:29;30.60;;;4.60;;
44430;SDS011;30135;47.866;-4.222;2023-07-31T06:58:55;33.53;;;5.47;;
44430;SDS011;30135;47.866;-4.222;2023-07-31T07:01:21;24.48;;;4.20;;
44430;SDS011;30135;47.866;-4.222;2023-07-31T07:03:47;32.78;;;5.47;;
44430;SDS011;30135;47.866;-4.222;2023-07-31T07:06:16;20.33;;;3.83;;
44430;SDS011;30135;47.866;-4.222;2023-07-31T07:08:43;17.63;;;3.80;;
44430;SDS011;30135;47.866;-4.222;2023-07-31T07:11:09;28.17;;;4.97;;
44430;SDS011;30135;47.866;-4.222;2023-07-31T07:13:35;27.73;;;4.28;;
44430;SDS011;30135;47.866;-4.222;2023-07-31T07:16:01;21.05;;;3.70;;
44430;SDS011;30135;47.866;-4.222;2023-07-31T07:18:26;25.20;;;3.20;;
44430;SDS011;30135;47.866;-4.222;2023-07-31T07:20:53;28.85;;;3.55;;
44430;SDS011;30135;47.866;-4.222;2023-07-31T07:23:20;19.20;;;3.13;;
44430;SDS011;30135;47.866;-4.222;2023-07-31T07:25:46;24.10;;;3.92;;
44430;SDS011;30135;47.866;-4.222;2023-07-31T07:28:13;23.88;;;3.92;;
44430;SDS011;30135;47.866;-4.222;2023-07-31T07:30:39;25.02;;;3.92;;
44430;SDS011;30135;47.866;-4.222;2023-07-31T07:33:08;21.00;;;4.50;;
44430;SDS011;30135;47.866;-4.222;2023-07-31T07:35:34;21.23;;;4.28;;
44430;SDS011;30135;47.866;-4.222;2023-07-31T07:38:04;29.30;;;4.53;;
44430;SDS011;30135;47.866;-4.222;2023-07-31T07:40:30;21.85;;;3.53;;
44430;SDS011;30135;47.866;-4.222;2023-07-31T07:42:56;23.17;;;3.25;;
44430;SDS011;30135;47.866;-4.222;2023-07-31T07:45:22;18.67;;;3.85;;
44430;SDS011;30135;47.866;-4.222;2023-07-31T07:47:49;32.47;;;4.00;;
44430;SDS011;30135;47.866;-4.222;2023-07-31T07:50:15;24.13;;;3.38;;
44430;SDS011;30135;47.866;-4.222;2023-07-31T07:52:41;26.83;;;3.47;;
44430;SDS011;30135;47.866;-4.222;2023-07-31T07:55:07;13.43;;;2.50;;
44430;SDS011;30135;47.866;-4.222;2023-07-31T07:57:33;17.23;;;3.10;;
44430;SDS011;30135;47.866;-4.222;2023-07-31T07:59:59;9.93;;;2.35;;
44430;SDS011;30135;47.866;-4.222;2023-07-31T08:02:25;25.65;;;2.90;;
44430;SDS011;30135;47.866;-4.222;2023-07-31T08:04:51;14.35;;;2.58;;
44430;SDS011;30135;47.866;-4.222;2023-07-31T08:07:17;14.75;;;3.15;;
44430;SDS011;30135;47.866;-4.222;2023-07-31T08:09:43;15.38;;;3.67;;
44430;SDS011;30135;47.866;-4.222;2023-07-31T08:12:09;13.57;;;2.83;;
44430;SDS011;30135;47.866;-4.222;2023-07-31T08:14:35;12.50;;;3.40;;
44430;SDS011;30135;47.866;-4.222;2023-07-31T08:17:01;21.75;;;3.45;;
44430;SDS011;30135;47.866;-4.222;2023-07-31T08:19:28;11.02;;;2.85;;
44430;SDS011;30135;47.866;-4.222;2023-07-31T08:21:54;12.50;;;2.83;;
44430;SDS011;30135;47.866;-4.222;2023-07-31T08:24:20;10.10;;;2.40;;
44430;SDS011;30135;47.866;-4.222;2023-07-31T08:26:46;12.35;;;3.72;;
44430;SDS011;30135;47.866;-4.222;2023-07-31T08:29:13;16.27;;;3.60;;
44430;SDS011;30135;47.866;-4.222;2023-07-31T08:31:39;14.93;;;2.60;;
44430;SDS011;30135;47.866;-4.222;2023-07-31T08:34:05;16.23;;;3.72;;
44430;SDS011;30135;47.866;-4.222;2023-07-31T08:36:31;13.55;;;3.15;;
44430;SDS011;30135;47.866;-4.222;2023-07-31T08:38:57;18.45;;;3.72;;
44430;SDS011;30135;47.866;-4.222;2023-07-31T08:41:23;16.90;;;3.80;;
44430;SDS011;30135;47.866;-4.222;2023-07-31T08:43:49;18.80;;;3.05;;
44430;SDS011;30135;47.866;-4.222;2023-07-31T08:46:16;17.48;;;3.47;;
44430;SDS011;30135;47.866;-4.222;2023-07-31T08:48:42;17.10;;;3.83;;
44430;SDS011;30135;47.866;-4.222;2023-07-31T08:51:09;24.38;;;4.07;;
44430;SDS011;30135;47.866;-4.222;2023-07-31T08:53:35;16.50;;;2.70;;
44430;SDS011;30135;47.866;-4.222;2023-07-31T08:56:01;18.00;;;3.65;;
44430;SDS011;30135;47.866;-4.222;2023-07-31T08:58:31;22.50;;;3.53;;
44430;SDS011;30135;47.866;-4.222;2023-07-31T09:01:01;17.85;;;3.67;;
44430;SDS011;30135;47.866;-4.222;2023-07-31T09:03:33;18.70;;;3.13;;
44430;SDS011;30135;47.866;-4.222;2023-07-31T09:06:00;13.50;;;2.83;;
44430;SDS011;30135;47.866;-4.222;2023-07-31T09:08:31;15.02;;;2.85;;
44430;SDS011;30135;47.866;-4.222;2023-07-31T09:11:01;19.50;;;3.63;;
44430;SDS011;30135;47.866;-4.222;2023-07-31T09:13:31;15.70;;;2.88;;
44430;SDS011;30135;47.866;-4.222;2023-07-31T09:15:58;15.50;;;3.40;;
44430;SDS011;30135;47.866;-4.222;2023-07-31T09:18:24;16.67;;;2.85;;
44430;SDS011;30135;47.866;-4.222;2023-07-31T09:21:03;7.43;;;2.10;;
44430;SDS011;30135;47.866;-4.222;2023-07-31T09:23:40;9.77;;;2.40;;
44430;SDS011;30135;47.866;-4.222;2023-07-31T09:26:08;17.95;;;3.17;;
44430;SDS011;30135;47.866;-4.222;2023-07-31T09:28:35;13.20;;;3.17;;
44430;SDS011;30135;47.866;-4.222;2023-07-31T09:31:01;13.23;;;2.85;;
44430;SDS011;30135;47.866;-4.222;2023-07-31T09:33:27;13.70;;;3.92;;
44430;SDS011;30135;47.866;-4.222;2023-07-31T09:35:53;16.35;;;3.45;;
44430;SDS011;30135;47.866;-4.222;2023-07-31T09:38:19;9.93;;;1.90;;
44430;SDS011;30135;47.866;-4.222;2023-07-31T09:40:46;21.40;;;3.28;;
44430;SDS011;30135;47.866;-4.222;2023-07-31T09:43:14;20.15;;;2.60;;
44430;SDS011;30135;47.866;-4.222;2023-07-31T09:45:44;17.95;;;3.03;;
44430;SDS011;30135;47.866;-4.222;2023-07-31T09:48:12;12.82;;;2.35;;
44430;SDS011;30135;47.866;-4.222;2023-07-31T09:50:43;19.77;;;2.83;;
44430;SDS011;30135;47.866;-4.222;2023-07-31T09:53:13;14.55;;;2.88;;
44430;SDS011;30135;47.866;-4.222;2023-07-31T09:55:42;15.65;;;3.55;;
44430;SDS011;30135;47.866;-4.222;2023-07-31T09:58:09;16.70;;;2.33;;
44430;SDS011;30135;47.866;-4.222;2023-07-31T10:00:37;24.40;;;5.10;;
44430;SDS011;30135;47.866;-4.222;2023-07-31T10:03:07;19.20;;;3.72;;
44430;SDS011;30135;47.866;-4.222;2023-07-31T10:05:38;28.60;;;4.50;;
44430;SDS011;30135;47.866;-4.222;2023-07-31T10:08:15;23.50;;;3.33;;
44430;SDS011;30135;47.866;-4.222;2023-07-31T10:10:44;23.20;;;3.80;;
44430;SDS011;30135;47.866;-4.222;2023-07-31T10:13:12;28.58;;;5.00;;
44430;SDS011;30135;47.866;-4.222;2023-07-31T10:15:39;21.60;;;5.32;;
44430;SDS011;30135;47.866;-4.222;2023-07-31T10:18:06;14.70;;;3.58;;
44430;SDS011;30135;47.866;-4.222;2023-07-31T10:20:33;20.48;;;3.90;;
44430;SDS011;30135;47.866;-4.222;2023-07-31T10:23:00;27.23;;;4.00;;
44430;SDS011;30135;47.866;-4.222;2023-07-31T10:25:27;15.63;;;3.45;;
44430;SDS011;30135;47.866;-4.222;2023-07-31T10:27:54;17.90;;;3.95;;
44430;SDS011;30135;47.866;-4.222;2023-07-31T10:30:24;17.92;;;3.08;;
44430;SDS011;30135;47.866;-4.222;2023-07-31T10:33:03;25.90;;;4.00;;
44430;SDS011;30135;47.866;-4.222;2023-07-31T10:35:31;21.55;;;3.70;;
44430;SDS011;30135;47.866;-4.222;2023-07-31T10:38:08;26.83;;;3.90;;
44430;SDS011;30135;47.866;-4.222;2023-07-31T10:40:39;23.80;;;6.25;;
44430;SDS011;30135;47.866;-4.222;2023-07-31T10:43:06;22.20;;;3.67;;
44430;SDS011;30135;47.866;-4.222;2023-07-31T10:45:37;17.58;;;3.42;;
44430;SDS011;30135;47.866;-4.222;2023-07-31T10:48:14;21.08;;;5.30;;
44430;SDS011;30135;47.866;-4.222;2023-07-31T10:50:48;42.20;;;4.50;;
44430;SDS011;30135;47.866;-4.222;2023-07-31T10:56:01;22.13;;;5.18;;
44430;SDS011;30135;47.866;-4.222;2023-07-31T10:58:29;28.93;;;3.90;;
44430;SDS011;30135;47.866;-4.222;2023-07-31T11:03:27;21.40;;;4.93;;
44430;SDS011;30135;47.866;-4.222;2023-07-31T11:06:10;15.25;;;3.75;;
44430;SDS011;30135;47.866;-4.222;2023-07-31T11:08:41;18.42;;;4.45;;
44430;SDS011;30135;47.866;-4.222;2023-07-31T11:11:10;26.65;;;4.55;;
44430;SDS011;30135;47.866;-4.222;2023-07-31T11:16:15;20.48;;;3.58;;
44430;SDS011;30135;47.866;-4.222;2023-07-31T11:18:43;22.65;;;4.55;;
44430;SDS011;30135;47.866;-4.222;2023-07-31T11:21:17;21.65;;;4.25;;
44430;SDS011;30135;47.866;-4.222;2023-07-31T11:23:49;17.00;;;4.82;;
44430;SDS011;30135;47.866;-4.222;2023-07-31T11:26:22;18.38;;;4.15;;
44430;SDS011;30135;47.866;-4.222;2023-07-31T11:28:50;18.02;;;4.03;;
44430;SDS011;30135;47.866;-4.222;2023-07-31T11:31:16;21.25;;;4.68;;
44430;SDS011;30135;47.866;-4.222;2023-07-31T11:33:43;25.00;;;4.70;;
44430;SDS011;30135;47.866;-4.222;2023-07-31T11:36:16;22.77;;;3.75;;
44430;SDS011;30135;47.866;-4.222;2023-07-31T11:38:45;22.63;;;5.20;;
44430;SDS011;30135;47.866;-4.222;2023-07-31T11:41:13;23.25;;;3.80;;
44430;SDS011;30135;47.866;-4.222;2023-07-31T11:43:44;16.42;;;3.28;;
44430;SDS011;30135;47.866;-4.222;2023-07-31T11:46:12;15.38;;;3.28;;
44430;SDS011;30135;47.866;-4.222;2023-07-31T11:48:40;19.23;;;3.30;;
44430;SDS011;30135;47.866;-4.222;2023-07-31T11:51:08;15.55;;;2.75;;
44430;SDS011;30135;47.866;-4.222;2023-07-31T11:53:43;10.70;;;2.38;;
44430;SDS011;30135;47.866;-4.222;2023-07-31T11:56:21;15.43;;;2.70;;
44430;SDS011;30135;47.866;-4.222;2023-07-31T11:59:07;13.75;;;1.98;;
44430;SDS011;30135;47.866;-4.222;2023-07-31T12:01:33;7.68;;;2.58;;
44430;SDS011;30135;47.866;-4.222;2023-07-31T12:04:00;8.48;;;2.63;;
44430;SDS011;30135;47.866;-4.222;2023-07-31T12:06:33;13.98;;;3.47;;
44430;SDS011;30135;47.866;-4.222;2023-07-31T12:09:02;13.95;;;2.70;;
44430;SDS011;30135;47.866;-4.222;2023-07-31T12:11:29;8.50;;;2.25;;
44430;SDS011;30135;47.866;-4.222;2023-07-31T12:13:55;9.93;;;1.98;;
44430;SDS011;30135;47.866;-4.222;2023-07-31T12:16:22;6.55;;;2.38;;
44430;SDS011;30135;47.866;-4.222;2023-07-31T12:18:53;12.10;;;2.15;;
44430;SDS011;30135;47.866;-4.222;2023-07-31T12:21:19;13.70;;;2.85;;
44430;SDS011;30135;47.866;-4.222;2023-07-31T12:23:52;13.52;;;3.22;;
44430;SDS011;30135;47.866;-4.222;2023-07-31T12:26:19;10.23;;;2.78;;
44430;SDS011;30135;47.866;-4.222;2023-07-31T12:28:46;17.88;;;3.33;;
44430;SDS011;30135;47.866;-4.222;2023-07-31T12:31:18;24.30;;;3.58;;
44430;SDS011;30135;47.866;-4.222;2023-07-31T12:33:47;14.48;;;3.75;;
44430;SDS011;30135;47.866;-4.222;2023-07-31T12:36:16;19.48;;;3.90;;
44430;SDS011;30135;47.866;-4.222;2023-07-31T12:38:46;18.05;;;3.63;;
44430;SDS011;30135;47.866;-4.222;2023-07-31T12:41:12;22.52;;;5.60;;
44430;SDS011;30135;47.866;-4.222;2023-07-31T12:43:39;18.58;;;3.88;;
44430;SDS011;30135;47.866;-4.222;2023-07-31T12:46:07;31.75;;;4.45;;
44430;SDS011;30135;47.866;-4.222;2023-07-31T12:48:33;28.42;;;5.20;;
44430;SDS011;30135;47.866;-4.222;2023-07-31T12:51:00;27.60;;;4.97;;
44430;SDS011;30135;47.866;-4.222;2023-07-31T12:53:26;23.80;;;4.53;;
44430;SDS011;30135;47.866;-4.222;2023-07-31T12:55:53;22.15;;;4.45;;
44430;SDS011;30135;47.866;-4.222;2023-07-31T12:58:20;23.50;;;4.53;;
44430;SDS011;30135;47.866;-4.222;2023-07-31T13:00:46;23.58;;;6.55;;
44430;SDS011;30135;47.866;-4.222;2023-07-31T13:03:12;18.45;;;4.63;;
44430;SDS011;30135;47.866;-4.222;2023-07-31T13:05:38;25.35;;;4.60;;
44430;SDS011;30135;47.866;-4.222;2023-07-31T13:08:04;28.75;;;4.93;;
44430;SDS011;30135;47.866;-4.222;2023-07-31T13:10:30;26.27;;;6.10;;
44430;SDS011;30135;47.866;-4.222;2023-07-31T13:12:56;31.55;;;5.20;;
44430;SDS011;30135;47.866;-4.222;2023-07-31T13:15:23;34.38;;;8.48;;
44430;SDS011;30135;47.866;-4.222;2023-07-31T13:17:49;28.63;;;5.72;;
44430;SDS011;30135;47.866;-4.222;2023-07-31T13:20:15;33.55;;;5.28;;
44430;SDS011;30135;47.866;-4.222;2023-07-31T13:22:41;34.03;;;5.43;;
44430;SDS011;30135;47.866;-4.222;2023-07-31T13:25:07;41.42;;;6.47;;
44430;SDS011;30135;47.866;-4.222;2023-07-31T13:27:34;22.30;;;6.97;;
44430;SDS011;30135;47.866;-4.222;2023-07-31T13:30:01;28.90;;;7.15;;
44430;SDS011;30135;47.866;-4.222;2023-07-31T13:32:27;36.50;;;6.82;;
44430;SDS011;30135;47.866;-4.222;2023-07-31T13:34:53;62.50;;;7.78;;
44430;SDS011;30135;47.866;-4.222;2023-07-31T13:37:19;37.30;;;6.60;;
44430;SDS011;30135;47.866;-4.222;2023-07-31T13:39:45;34.28;;;6.63;;
44430;SDS011;30135;47.866;-4.222;2023-07-31T13:42:11;40.55;;;6.40;;
44430;SDS011;30135;47.866;-4.222;2023-07-31T13:44:43;36.28;;;6.15;;
44430;SDS011;30135;47.866;-4.222;2023-07-31T13:47:09;44.22;;;7.10;;
44430;SDS011;30135;47.866;-4.222;2023-07-31T13:49:35;46.13;;;7.43;;
44430;SDS011;30135;47.866;-4.222;2023-07-31T13:52:04;51.85;;;8.70;;
44430;SDS011;30135;47.866;-4.222;2023-07-31T13:54:30;37.60;;;7.13;;
44430;SDS011;30135;47.866;-4.222;2023-07-31T13:56:56;38.30;;;6.93;;
44430;SDS011;30135;47.866;-4.222;2023-07-31T13:59:22;40.90;;;7.78;;
44430;SDS011;30135;47.866;-4.222;2023-07-31T14:01:48;47.15;;;7.28;;
44430;SDS011;30135;47.866;-4.222;2023-07-31T14:04:15;41.00;;;7.55;;
44430;SDS011;30135;47.866;-4.222;2023-07-31T14:06:42;43.42;;;6.43;;
44430;SDS011;30135;47.866;-4.222;2023-07-31T14:09:09;38.05;;;6.22;;
44430;SDS011;30135;47.866;-4.222;2023-07-31T14:11:35;35.88;;;6.57;;
44430;SDS011;30135;47.866;-4.222;2023-07-31T14:14:01;41.35;;;5.93;;
44430;SDS011;30135;47.866;-4.222;2023-07-31T14:16:28;31.77;;;6.07;;
44430;SDS011;30135;47.866;-4.222;2023-07-31T14:18:54;30.17;;;5.15;;
44430;SDS011;30135;47.866;-4.222;2023-07-31T14:21:20;40.83;;;7.88;;
44430;SDS011;30135;47.866;-4.222;2023-07-31T14:23:46;35.75;;;6.15;;
44430;SDS011;30135;47.866;-4.222;2023-07-31T14:26:12;33.38;;;6.95;;
44430;SDS011;30135;47.866;-4.222;2023-07-31T14:28:38;31.67;;;5.82;;
44430;SDS011;30135;47.866;-4.222;2023-07-31T14:31:07;38.45;;;5.88;;
44430;SDS011;30135;47.866;-4.222;2023-07-31T14:33:33;39.17;;;5.95;;
44430;SDS011;30135;47.866;-4.222;2023-07-31T14:36:00;46.67;;;6.65;;